Nearby METAR Reports

 

ENCN - Kristiansand/Kje, Norway
Distance from station: N 17km
Oppdatert: 22/07/2024 10:50
Hovedsaklig skyet
Hovedsaklig skyet
 Vind fra SSV
Vind: SSV 11 km/h
Temperatur: 19°C
Duggpunkt: 18°C
Fuktighet: 94%
Barometer: 1007 hPa
Clouds: Hovedsaklig skyet
Visibility: 10 km
Cloud details: Delvis skyet 305 m
Hovedsaklig skyet 427 m
2024/07/22 08:50 ENCN 220850Z 20006KT 9999 SCT010 BKN014 19/18 Q1007
EKSN - Sindal Airport, Denmark
Distance from station: ØSØ 145km
Oppdatert: 30/12/2021 14:50
NOT Current
Mist, Hovedsaklig skyet
Mist, Hovedsaklig skyet
 Vind fra SV
Vind: SV 26 km/h
Temperatur: 7°C
Wind Chill: 3°C
Duggpunkt: 7°C
Fuktighet: 100%
Barometer: 999 hPa
Oversikt: Mist
Clouds: Hovedsaklig skyet
Visibility: 5 km
Cloud details: Delvis skyet 183 m
Hovedsaklig skyet 244 m
2021/12/30 13:50 EKSN 301350Z 23014KT 4500 BR SCT006 BKN008 07/07 Q0999
 
EKYT - Alborg, Denmark
Distance from station: SØ 153km
Oppdatert: 22/07/2024 10:50
Lett regn, Overskyet
Lett regn, Overskyet
 Vind fra V
Vind: V 15 km/h
Temperatur: 16°C
Duggpunkt: 16°C
Fuktighet: 100%
Barometer: 1008 hPa
Oversikt: Lett regn
Clouds: Overskyet
Visibility: 10 km
Cloud details: Overskyet 213 m
2024/07/22 08:50 EKYT 220850Z AUTO 27008KT 9999 -RA OVC007/// 16/16 Q1008 RERA
ENSN - Skien/Geiterygge, Norway
Distance from station: NØ 153km
Oppdatert: 09/11/2015 09:50
NOT Current
Klart
Klart
 Vind fra SSV
Vind: SSV 19 km/h, Vindkast: 41 km/h
Temperatur: 7°C
Wind Chill: 4°C
Duggpunkt: 3°C
Fuktighet: 76%
Barometer: 1000 hPa
Oversikt: Klart
Visibility: greater than 10 km
2015/11/09 08:50 ENSN 090850Z 20010G22KT 150V240 CAVOK 07/03 Q1000
 
ENZV - Stavanger/Sola(A, Norway
Distance from station: NV 166km
Oppdatert: 22/07/2024 10:50
Delvis skyet
Delvis skyet
 Vind fra NNV
Vind: NNV 24 km/h
Temperatur: 17°C
Duggpunkt: 11°C
Fuktighet: 68%
Barometer: 1010 hPa
Clouds: Delvis skyet
Visibility: 10 km
Cloud details: Delvis skyet 579 m
2024/07/22 08:50 ENZV 220850Z 33013KT 9999 SCT019 17/11 Q1010 NOSIG
ENNO - Notodden, Norway
Distance from station: NNØ 182km
Oppdatert: 22/07/2024 10:20
Nearby showers, Hovedsaklig skyet
Nearby showers, Hovedsaklig skyet
 Vind fra calm
Vind: Stille
Temperatur: 16°C
Duggpunkt: 16°C
Fuktighet: 100%
Barometer: 1007 hPa
Oversikt: Nearby Showers
Clouds: Hovedsaklig skyet
Visibility: 10 km
Cloud details: Few Clouds 152 m
Delvis skyet 732 m
Hovedsaklig skyet 1311 m
2024/07/22 08:20 ENNO 220820Z 00000KT 9999 VCSH FEW005 SCT024 BKN043 16/16 Q1007
 
ENTO - Torp (civ/Nor-Af, Norway
Distance from station: NØ 183km
Oppdatert: 22/07/2024 10:50
Regn, Hovedsaklig skyet
Regn, Hovedsaklig skyet
 Vind fra SØ
Vind: SØ 11 km/h
Temperatur: 17°C
Duggpunkt: 17°C
Fuktighet: 100%
Barometer: 1009 hPa
Oversikt: Regn
Clouds: Hovedsaklig skyet
Visibility: 9 km
Cloud details: Delvis skyet 366 m
Hovedsaklig skyet 1189 m
2024/07/22 08:50 ENTO 220850Z 14006KT 9000 RA SCT012 BKN039 17/17 Q1009 TEMPO 4000 SHRA BKN008 SCT030CB
EKKA - Karup (dan-Afb), Denmark
Distance from station: SSØ 209km
Oppdatert: 22/07/2024 10:50
Overskyet
Overskyet
 Vind fra VNV
Vind: VNV 22 km/h
Temperatur: 17°C
Duggpunkt: 14°C
Fuktighet: 83%
Barometer: 1010 hPa
Clouds: Overskyet
Visibility: 10 km
Cloud details: Overskyet 274 m
2024/07/22 08:50 EKKA 220850Z AUTO 29012KT 9999 OVC009/// 17/14 Q1010 BECMG BKN020
 
ENHD - Haugesund/Karmoy, Norway
Distance from station: NV 216km
Oppdatert: 22/07/2024 10:50
Few Clouds
Few Clouds
 Vind fra NV
Vind: NV 19 km/h
Temperatur: 17°C
Duggpunkt: 12°C
Fuktighet: 73%
Barometer: 1010 hPa
Clouds: Few Clouds
Visibility: 10 km
Cloud details: Few Clouds 518 m
2024/07/22 08:50 ENHD 220850Z 32010KT 280V350 9999 FEW017 17/12 Q1010
ENRY - Rygge (nor-Afb), Norway
Distance from station: NØ 216km
Oppdatert: 22/07/2024 10:50
Lett regn, Few clouds
Lett regn, Few clouds
 Vind fra SØ
Vind: SØ 15 km/h
Temperatur: 19°C
Duggpunkt: 17°C
Fuktighet: 88%
Barometer: 1008 hPa
Oversikt: Lett regn
Clouds: Few Clouds
Visibility: 10 km
Cloud details: Few Clouds 2865 m
2024/07/22 08:50 ENRY 220850Z 13008KT 9999 -RA FEW094 19/17 Q1008 RERA TEMPO SHRA BKN014 SCT030CB
 
ESGP - Goteborg/Save (a, Sweden
Distance from station: Ø 230km
Oppdatert: 22/07/2024 10:20
Klart
Klart
 Vind fra varies
Vind: varies 4 km/h
Temperatur: 20°C
Duggpunkt: 13°C
Fuktighet: 64%
Barometer: 1009 hPa
Oversikt: Klart
Visibility: greater than 10 km
2024/07/22 08:20 ESGP 220820Z VRB02KT CAVOK 20/13 Q1009
EKVJ - Stauning Airport, Denmark
Distance from station: S 233km
Oppdatert: 22/07/2024 10:50
Hovedsaklig skyet
Hovedsaklig skyet
 Vind fra VNV
Vind: VNV 20 km/h
Temperatur: 17°C
Duggpunkt: 12°C
Fuktighet: 73%
Barometer: 1011 hPa
Clouds: Hovedsaklig skyet
Visibility: 10 km
Cloud details: Few Clouds 610 m
Hovedsaklig skyet 762 m
2024/07/22 08:50 EKVJ 220850Z 29011KT 250V320 9999 FEW020 BKN025 17/12 Q1011
 
ENSO - Stord/Soerstokke, Norway
Distance from station: NV 246km
Oppdatert: 22/07/2024 10:20
Few Clouds
Few Clouds
 Vind fra NNV
Vind: NNV 17 km/h
Temperatur: 15°C
Duggpunkt: 12°C
Fuktighet: 82%
Barometer: 1010 hPa
Clouds: Few Clouds
Visibility: 10 km
Cloud details: Few Clouds 610 m
2024/07/22 08:20 ENSO 220820Z 33009KT 9999 FEW020 15/12 Q1010
EKAH - Tirstrup (civ/Mi, Denmark
Distance from station: SØ 252km
Oppdatert: 22/07/2024 10:50
Regn, Overskyet
Regn, Overskyet
 Vind fra VNV
Vind: VNV 13 km/h
Temperatur: 18°C
Duggpunkt: 18°C
Fuktighet: 100%
Barometer: 1009 hPa
Oversikt: Regn
Clouds: Overskyet
Visibility: 10 km
Cloud details: Overskyet 183 m
2024/07/22 08:50 EKAH 220850Z AUTO 29007KT 9999 RA OVC006/// 18/18 Q1009
 
ESGT - Trollhattan (pvt, Sweden
Distance from station: Ø 255km
Oppdatert: 22/07/2024 10:20
Overskyet
Overskyet
 Vind fra SØ
Vind: SØ 13 km/h
Temperatur: 21°C
Duggpunkt: 13°C
Fuktighet: 60%
Barometer: 1009 hPa
Clouds: Overskyet
Visibility: 10 km
Cloud details: Overskyet 3048 m
2024/07/22 08:20 ESGT 220820Z AUTO 13007KT 9999 OVC100/// 21/13 Q1009
ESGG - Goteborg/Landvet, Sweden
Distance from station: Ø 257km
Oppdatert: 22/07/2024 10:20
Klart
Klart
 Vind fra SØ
Vind: SØ 15 km/h
Temperatur: 19°C
Duggpunkt: 13°C
Fuktighet: 68%
Barometer: 1009 hPa
Oversikt: Klart
Visibility: greater than 10 km
2024/07/22 08:20 ESGG 220820Z 14008KT 120V180 CAVOK 19/13 Q1009
 
EKBI - Billund Airport, Denmark
Distance from station: SSØ 269km
Oppdatert: 22/07/2024 10:50
Yr, Regn, Overskyet
Yr, Regn, Overskyet
 Vind fra VNV
Vind: VNV 22 km/h
Temperatur: 16°C
Duggpunkt: 14°C
Fuktighet: 88%
Oversikt: Yr, Regn
Clouds: Overskyet
Visibility: 10 km
Cloud details: Overskyet 366 m
2024/07/22 08:50 EKBI 220850Z AUTO 29012KT 9999 -DZRA OVC012/// 16/14
EKHN - Horns Rev B Heli, Denmark
Distance from station: S 274km
Oppdatert: 09/08/2016 14:20
NOT Current
Few Clouds
Few Clouds
 Vind fra VNV
Vind: VNV 50 km/h, Vindkast: 72 km/h
Temperatur: 14°C
Duggpunkt: 10°C
Fuktighet: 77%
Barometer: 1018 hPa
Clouds: Few Clouds
Visibility: 10 km
Cloud details: Few Clouds 1158 m
Few Clouds 2438 m
2016/08/09 12:20 EKHN 091220Z AUTO 29027G39KT 270V340 9999NDV FEW038/// FEW080/// 14/10 Q1018
 
ESIB - Satenas (swe-Afb, Sweden
Distance from station: Ø 277km
Oppdatert: 22/07/2024 10:20
Overskyet
Overskyet
 Vind fra SØ
Vind: SØ 17 km/h
Temperatur: 21°C
Duggpunkt: 14°C
Fuktighet: 64%
Barometer: 1009 hPa
Clouds: Overskyet
Visibility: 10 km
Cloud details: Delvis skyet 1707 m
Overskyet 3962 m
2024/07/22 08:20 ESIB 220820Z AUTO 13009KT 9999 SCT056/// OVC130/// 21/14 Q1009
EKHR - Horns Rev B Heli, Denmark
Distance from station: S 282km
Oppdatert: 04/10/2016 06:20
NOT Current
Klart
Klart
 Vind fra Ø
Vind: Ø 4 km/h
Temperatur: 11°C
Duggpunkt: -49°C
Fuktighet: 0%
Barometer: 1038 hPa
Clouds: Klart
Visibility: 10 km
2016/10/04 04:20 EKHR 040420Z AUTO 08002KT 9999NDV NCD 11/M49 Q1038